sensor_id;sensor_type;location;lat;lon;timestamp;P1;durP1;ratioP1;P2;durP2;ratioP2
23449;SDS011;11897;45.438;12.128;2023-10-19T00:00:12;14.83;;;7.90;;
23449;SDS011;11897;45.438;12.128;2023-10-19T00:02:50;17.03;;;8.63;;
23449;SDS011;11897;45.438;12.128;2023-10-19T00:05:20;13.10;;;7.57;;
23449;SDS011;11897;45.438;12.128;2023-10-19T00:07:46;12.93;;;7.70;;
23449;SDS011;11897;45.438;12.128;2023-10-19T00:10:13;13.93;;;7.83;;
23449;SDS011;11897;45.438;12.128;2023-10-19T00:12:43;11.67;;;7.27;;
23449;SDS011;11897;45.438;12.128;2023-10-19T00:15:17;13.00;;;8.40;;
23449;SDS011;11897;45.438;12.128;2023-10-19T00:17:50;15.27;;;8.47;;
23449;SDS011;11897;45.438;12.128;2023-10-19T00:20:19;14.00;;;7.77;;
23449;SDS011;11897;45.438;12.128;2023-10-19T00:23:02;13.63;;;7.90;;
23449;SDS011;11897;45.438;12.128;2023-10-19T00:25:31;15.57;;;8.63;;
23449;SDS011;11897;45.438;12.128;2023-10-19T00:28:01;11.20;;;7.20;;
23449;SDS011;11897;45.438;12.128;2023-10-19T00:30:30;16.40;;;8.70;;
23449;SDS011;11897;45.438;12.128;2023-10-19T00:33:00;12.47;;;8.00;;
23449;SDS011;11897;45.438;12.128;2023-10-19T00:35:33;13.60;;;8.73;;
23449;SDS011;11897;45.438;12.128;2023-10-19T00:38:01;13.23;;;8.40;;
23449;SDS011;11897;45.438;12.128;2023-10-19T00:40:42;14.37;;;8.03;;
23449;SDS011;11897;45.438;12.128;2023-10-19T00:43:15;12.67;;;8.57;;
23449;SDS011;11897;45.438;12.128;2023-10-19T00:45:52;12.80;;;7.87;;
23449;SDS011;11897;45.438;12.128;2023-10-19T00:48:19;11.23;;;7.43;;
23449;SDS011;11897;45.438;12.128;2023-10-19T00:50:52;13.17;;;7.70;;
23449;SDS011;11897;45.438;12.128;2023-10-19T00:53:33;15.23;;;8.73;;
23449;SDS011;11897;45.438;12.128;2023-10-19T00:56:01;14.20;;;8.00;;
23449;SDS011;11897;45.438;12.128;2023-10-19T00:58:31;14.10;;;8.13;;
23449;SDS011;11897;45.438;12.128;2023-10-19T01:01:02;14.27;;;7.97;;
23449;SDS011;11897;45.438;12.128;2023-10-19T01:03:31;15.80;;;8.10;;
23449;SDS011;11897;45.438;12.128;2023-10-19T01:06:02;13.37;;;8.03;;
23449;SDS011;11897;45.438;12.128;2023-10-19T01:08:38;11.70;;;8.17;;
23449;SDS011;11897;45.438;12.128;2023-10-19T01:11:08;10.93;;;7.53;;
23449;SDS011;11897;45.438;12.128;2023-10-19T01:13:39;13.10;;;8.17;;
23449;SDS011;11897;45.438;12.128;2023-10-19T01:16:13;12.90;;;8.07;;
23449;SDS011;11897;45.438;12.128;2023-10-19T01:18:47;13.67;;;8.20;;
23449;SDS011;11897;45.438;12.128;2023-10-19T01:21:15;13.40;;;7.80;;
23449;SDS011;11897;45.438;12.128;2023-10-19T01:23:49;12.13;;;7.67;;
23449;SDS011;11897;45.438;12.128;2023-10-19T01:26:15;15.00;;;8.17;;
23449;SDS011;11897;45.438;12.128;2023-10-19T01:28:47;15.43;;;8.00;;
23449;SDS011;11897;45.438;12.128;2023-10-19T01:31:17;12.50;;;7.53;;
23449;SDS011;11897;45.438;12.128;2023-10-19T01:33:56;12.53;;;7.77;;
23449;SDS011;11897;45.438;12.128;2023-10-19T01:36:24;13.80;;;8.63;;
23449;SDS011;11897;45.438;12.128;2023-10-19T01:38:52;10.97;;;7.43;;
23449;SDS011;11897;45.438;12.128;2023-10-19T01:41:21;13.03;;;8.37;;
23449;SDS011;11897;45.438;12.128;2023-10-19T01:43:47;14.77;;;8.43;;
23449;SDS011;11897;45.438;12.128;2023-10-19T01:46:19;15.63;;;8.83;;
23449;SDS011;11897;45.438;12.128;2023-10-19T01:48:49;16.83;;;8.73;;
23449;SDS011;11897;45.438;12.128;2023-10-19T01:51:20;17.13;;;9.50;;
23449;SDS011;11897;45.438;12.128;2023-10-19T01:53:46;14.43;;;8.63;;
23449;SDS011;11897;45.438;12.128;2023-10-19T01:56:16;13.03;;;8.73;;
23449;SDS011;11897;45.438;12.128;2023-10-19T01:58:44;13.13;;;8.23;;
23449;SDS011;11897;45.438;12.128;2023-10-19T02:01:12;14.73;;;8.17;;
23449;SDS011;11897;45.438;12.128;2023-10-19T02:03:44;17.63;;;8.20;;
23449;SDS011;11897;45.438;12.128;2023-10-19T02:06:12;15.20;;;8.80;;
23449;SDS011;11897;45.438;12.128;2023-10-19T02:08:44;13.00;;;8.40;;
23449;SDS011;11897;45.438;12.128;2023-10-19T02:11:15;14.80;;;8.03;;
23449;SDS011;11897;45.438;12.128;2023-10-19T02:13:44;13.23;;;8.37;;
23449;SDS011;11897;45.438;12.128;2023-10-19T02:16:12;15.30;;;8.73;;
23449;SDS011;11897;45.438;12.128;2023-10-19T02:18:40;15.27;;;8.60;;
23449;SDS011;11897;45.438;12.128;2023-10-19T02:21:08;14.97;;;8.83;;
23449;SDS011;11897;45.438;12.128;2023-10-19T02:23:38;15.00;;;9.20;;
23449;SDS011;11897;45.438;12.128;2023-10-19T02:26:07;16.23;;;9.70;;
23449;SDS011;11897;45.438;12.128;2023-10-19T02:28:34;17.17;;;10.90;;
23449;SDS011;11897;45.438;12.128;2023-10-19T02:31:04;18.47;;;11.23;;
23449;SDS011;11897;45.438;12.128;2023-10-19T02:33:40;20.23;;;12.23;;
23449;SDS011;11897;45.438;12.128;2023-10-19T02:36:18;19.33;;;12.03;;
23449;SDS011;11897;45.438;12.128;2023-10-19T02:38:45;21.03;;;12.13;;
23449;SDS011;11897;45.438;12.128;2023-10-19T02:41:17;18.97;;;11.37;;
23449;SDS011;11897;45.438;12.128;2023-10-19T02:43:46;20.30;;;10.47;;
23449;SDS011;11897;45.438;12.128;2023-10-19T02:46:16;19.93;;;12.07;;
23449;SDS011;11897;45.438;12.128;2023-10-19T02:48:43;22.63;;;12.23;;
23449;SDS011;11897;45.438;12.128;2023-10-19T02:51:11;26.07;;;14.47;;
23449;SDS011;11897;45.438;12.128;2023-10-19T02:53:37;23.57;;;13.50;;
23449;SDS011;11897;45.438;12.128;2023-10-19T02:56:09;21.73;;;12.10;;
23449;SDS011;11897;45.438;12.128;2023-10-19T02:58:36;18.83;;;11.23;;
23449;SDS011;11897;45.438;12.128;2023-10-19T03:01:12;15.17;;;9.40;;
23449;SDS011;11897;45.438;12.128;2023-10-19T03:03:40;17.33;;;9.87;;
23449;SDS011;11897;45.438;12.128;2023-10-19T03:06:09;14.70;;;9.27;;
23449;SDS011;11897;45.438;12.128;2023-10-19T03:08:35;13.57;;;8.30;;
23449;SDS011;11897;45.438;12.128;2023-10-19T03:11:02;14.30;;;8.43;;
23449;SDS011;11897;45.438;12.128;2023-10-19T03:13:29;16.90;;;8.87;;
23449;SDS011;11897;45.438;12.128;2023-10-19T03:15:57;16.97;;;9.03;;
23449;SDS011;11897;45.438;12.128;2023-10-19T03:18:24;16.07;;;8.70;;
23449;SDS011;11897;45.438;12.128;2023-10-19T03:20:52;14.30;;;9.43;;
23449;SDS011;11897;45.438;12.128;2023-10-19T03:23:17;15.93;;;9.93;;
23449;SDS011;11897;45.438;12.128;2023-10-19T03:25:46;16.33;;;10.13;;
23449;SDS011;11897;45.438;12.128;2023-10-19T03:28:20;19.87;;;10.90;;
23449;SDS011;11897;45.438;12.128;2023-10-19T03:30:52;14.83;;;10.00;;
23449;SDS011;11897;45.438;12.128;2023-10-19T03:33:20;13.03;;;8.40;;
23449;SDS011;11897;45.438;12.128;2023-10-19T03:35:53;14.73;;;8.90;;
23449;SDS011;11897;45.438;12.128;2023-10-19T03:38:20;13.10;;;7.93;;
23449;SDS011;11897;45.438;12.128;2023-10-19T03:40:50;12.10;;;8.07;;
23449;SDS011;11897;45.438;12.128;2023-10-19T03:43:24;12.33;;;8.07;;
23449;SDS011;11897;45.438;12.128;2023-10-19T03:45:52;12.03;;;7.67;;
23449;SDS011;11897;45.438;12.128;2023-10-19T03:48:20;13.67;;;8.40;;
23449;SDS011;11897;45.438;12.128;2023-10-19T03:50:53;14.93;;;7.77;;
23449;SDS011;11897;45.438;12.128;2023-10-19T03:53:23;15.37;;;8.13;;
23449;SDS011;11897;45.438;12.128;2023-10-19T03:55:49;12.10;;;7.93;;
23449;SDS011;11897;45.438;12.128;2023-10-19T03:58:18;13.83;;;7.97;;
23449;SDS011;11897;45.438;12.128;2023-10-19T04:00:45;13.13;;;8.07;;
23449;SDS011;11897;45.438;12.128;2023-10-19T04:03:13;13.77;;;7.70;;
23449;SDS011;11897;45.438;12.128;2023-10-19T04:05:42;11.77;;;7.47;;
23449;SDS011;11897;45.438;12.128;2023-10-19T04:08:13;20.17;;;8.27;;
23449;SDS011;11897;45.438;12.128;2023-10-19T04:10:45;13.73;;;7.87;;
23449;SDS011;11897;45.438;12.128;2023-10-19T04:13:34;14.77;;;8.13;;
23449;SDS011;11897;45.438;12.128;2023-10-19T04:16:01;11.23;;;7.27;;
23449;SDS011;11897;45.438;12.128;2023-10-19T04:18:27;12.23;;;7.47;;
23449;SDS011;11897;45.438;12.128;2023-10-19T04:20:55;13.17;;;7.30;;
23449;SDS011;11897;45.438;12.128;2023-10-19T04:23:24;11.53;;;7.47;;
23449;SDS011;11897;45.438;12.128;2023-10-19T04:25:53;11.60;;;6.87;;
23449;SDS011;11897;45.438;12.128;2023-10-19T04:28:23;12.43;;;7.53;;
23449;SDS011;11897;45.438;12.128;2023-10-19T04:30:59;10.87;;;7.13;;
23449;SDS011;11897;45.438;12.128;2023-10-19T04:33:30;10.77;;;7.00;;
23449;SDS011;11897;45.438;12.128;2023-10-19T04:35:57;16.00;;;7.67;;
23449;SDS011;11897;45.438;12.128;2023-10-19T04:38:27;13.43;;;6.97;;
23449;SDS011;11897;45.438;12.128;2023-10-19T04:41:03;11.80;;;6.67;;
23449;SDS011;11897;45.438;12.128;2023-10-19T04:43:32;11.90;;;7.43;;
23449;SDS011;11897;45.438;12.128;2023-10-19T04:45:59;9.83;;;6.53;;
23449;SDS011;11897;45.438;12.128;2023-10-19T04:48:26;8.97;;;6.50;;
23449;SDS011;11897;45.438;12.128;2023-10-19T04:50:56;9.73;;;6.20;;
23449;SDS011;11897;45.438;12.128;2023-10-19T04:53:23;11.33;;;6.70;;
23449;SDS011;11897;45.438;12.128;2023-10-19T04:55:53;10.53;;;6.30;;
23449;SDS011;11897;45.438;12.128;2023-10-19T04:58:20;10.57;;;6.57;;
23449;SDS011;11897;45.438;12.128;2023-10-19T05:00:46;10.87;;;6.47;;
23449;SDS011;11897;45.438;12.128;2023-10-19T05:03:14;8.70;;;6.47;;
23449;SDS011;11897;45.438;12.128;2023-10-19T05:05:44;9.00;;;6.00;;
23449;SDS011;11897;45.438;12.128;2023-10-19T05:08:12;9.03;;;5.80;;
23449;SDS011;11897;45.438;12.128;2023-10-19T05:10:38;8.77;;;5.70;;
23449;SDS011;11897;45.438;12.128;2023-10-19T05:13:07;8.57;;;5.73;;
23449;SDS011;11897;45.438;12.128;2023-10-19T05:15:36;10.93;;;5.47;;
23449;SDS011;11897;45.438;12.128;2023-10-19T05:18:03;8.10;;;5.43;;
23449;SDS011;11897;45.438;12.128;2023-10-19T05:20:31;10.07;;;5.83;;
23449;SDS011;11897;45.438;12.128;2023-10-19T05:22:58;8.37;;;5.73;;
23449;SDS011;11897;45.438;12.128;2023-10-19T05:25:25;9.20;;;6.07;;
23449;SDS011;11897;45.438;12.128;2023-10-19T05:27:52;12.17;;;5.63;;
23449;SDS011;11897;45.438;12.128;2023-10-19T05:30:21;8.23;;;5.47;;
23449;SDS011;11897;45.438;12.128;2023-10-19T05:32:49;9.03;;;5.70;;
23449;SDS011;11897;45.438;12.128;2023-10-19T05:35:17;9.70;;;5.73;;
23449;SDS011;11897;45.438;12.128;2023-10-19T05:37:48;9.50;;;5.33;;
23449;SDS011;11897;45.438;12.128;2023-10-19T05:40:16;10.13;;;6.03;;
23449;SDS011;11897;45.438;12.128;2023-10-19T05:42:45;7.07;;;5.53;;
23449;SDS011;11897;45.438;12.128;2023-10-19T05:45:12;7.27;;;5.60;;
23449;SDS011;11897;45.438;12.128;2023-10-19T05:47:43;9.30;;;6.10;;
23449;SDS011;11897;45.438;12.128;2023-10-19T05:50:10;10.30;;;5.77;;
23449;SDS011;11897;45.438;12.128;2023-10-19T05:52:40;10.07;;;6.17;;
23449;SDS011;11897;45.438;12.128;2023-10-19T05:55:08;8.77;;;5.77;;
23449;SDS011;11897;45.438;12.128;2023-10-19T05:57:35;11.93;;;6.20;;
23449;SDS011;11897;45.438;12.128;2023-10-19T06:00:07;11.77;;;7.30;;
23449;SDS011;11897;45.438;12.128;2023-10-19T06:02:38;11.23;;;6.77;;
23449;SDS011;11897;45.438;12.128;2023-10-19T06:05:07;11.47;;;7.70;;
23449;SDS011;11897;45.438;12.128;2023-10-19T06:07:34;12.47;;;7.30;;
23449;SDS011;11897;45.438;12.128;2023-10-19T06:10:01;10.07;;;7.10;;
23449;SDS011;11897;45.438;12.128;2023-10-19T06:12:30;10.73;;;6.47;;
23449;SDS011;11897;45.438;12.128;2023-10-19T06:14:58;9.57;;;7.07;;
23449;SDS011;11897;45.438;12.128;2023-10-19T06:17:26;14.10;;;7.13;;
23449;SDS011;11897;45.438;12.128;2023-10-19T06:19:54;9.87;;;6.67;;
23449;SDS011;11897;45.438;12.128;2023-10-19T06:22:22;10.63;;;6.90;;
23449;SDS011;11897;45.438;12.128;2023-10-19T06:24:49;11.30;;;7.13;;
23449;SDS011;11897;45.438;12.128;2023-10-19T06:27:16;10.60;;;6.83;;
23449;SDS011;11897;45.438;12.128;2023-10-19T06:29:43;9.93;;;7.80;;
23449;SDS011;11897;45.438;12.128;2023-10-19T06:32:11;9.97;;;6.70;;
23449;SDS011;11897;45.438;12.128;2023-10-19T06:34:39;10.70;;;7.00;;
23449;SDS011;11897;45.438;12.128;2023-10-19T06:37:06;11.33;;;6.57;;
23449;SDS011;11897;45.438;12.128;2023-10-19T06:39:37;10.80;;;6.20;;
23449;SDS011;11897;45.438;12.128;2023-10-19T06:42:07;8.33;;;5.83;;
23449;SDS011;11897;45.438;12.128;2023-10-19T06:44:40;9.57;;;5.07;;
23449;SDS011;11897;45.438;12.128;2023-10-19T06:47:07;6.60;;;5.17;;
23449;SDS011;11897;45.438;12.128;2023-10-19T06:49:34;7.93;;;5.23;;
23449;SDS011;11897;45.438;12.128;2023-10-19T06:52:00;7.67;;;5.20;;
23449;SDS011;11897;45.438;12.128;2023-10-19T06:54:30;6.17;;;4.70;;
23449;SDS011;11897;45.438;12.128;2023-10-19T06:56:58;8.13;;;5.13;;
23449;SDS011;11897;45.438;12.128;2023-10-19T06:59:28;9.57;;;5.13;;
23449;SDS011;11897;45.438;12.128;2023-10-19T07:01:58;8.10;;;5.63;;
23449;SDS011;11897;45.438;12.128;2023-10-19T07:04:27;8.33;;;5.07;;
23449;SDS011;11897;45.438;12.128;2023-10-19T07:06:55;9.60;;;6.00;;
23449;SDS011;11897;45.438;12.128;2023-10-19T07:09:22;11.20;;;6.20;;
23449;SDS011;11897;45.438;12.128;2023-10-19T07:11:49;8.13;;;6.30;;
23449;SDS011;11897;45.438;12.128;2023-10-19T07:14:21;8.87;;;5.83;;
23449;SDS011;11897;45.438;12.128;2023-10-19T07:16:49;11.17;;;5.40;;
23449;SDS011;11897;45.438;12.128;2023-10-19T07:19:16;8.23;;;6.17;;
23449;SDS011;11897;45.438;12.128;2023-10-19T07:21:44;8.57;;;5.37;;
23449;SDS011;11897;45.438;12.128;2023-10-19T07:24:14;8.70;;;5.97;;
23449;SDS011;11897;45.438;12.128;2023-10-19T07:26:44;9.07;;;5.87;;
23449;SDS011;11897;45.438;12.128;2023-10-19T07:29:29;8.07;;;5.97;;
23449;SDS011;11897;45.438;12.128;2023-10-19T07:31:56;7.90;;;5.53;;
23449;SDS011;11897;45.438;12.128;2023-10-19T07:34:23;8.23;;;5.93;;
23449;SDS011;11897;45.438;12.128;2023-10-19T07:36:54;10.03;;;6.10;;
23449;SDS011;11897;45.438;12.128;2023-10-19T07:39:23;31.57;;;8.10;;
23449;SDS011;11897;45.438;12.128;2023-10-19T07:41:50;7.73;;;5.40;;
23449;SDS011;11897;45.438;12.128;2023-10-19T07:44:17;48.40;;;9.50;;
23449;SDS011;11897;45.438;12.128;2023-10-19T07:46:45;130.43;;;12.47;;
23449;SDS011;11897;45.438;12.128;2023-10-19T07:49:14;41.10;;;7.77;;
23449;SDS011;11897;45.438;12.128;2023-10-19T07:51:44;11.40;;;6.20;;
23449;SDS011;11897;45.438;12.128;2023-10-19T07:54:12;13.60;;;6.87;;
23449;SDS011;11897;45.438;12.128;2023-10-19T07:56:38;17.07;;;5.43;;
23449;SDS011;11897;45.438;12.128;2023-10-19T07:59:05;40.30;;;7.90;;
23449;SDS011;11897;45.438;12.128;2023-10-19T08:01:33;40.13;;;8.77;;
23449;SDS011;11897;45.438;12.128;2023-10-19T08:04:03;9.20;;;5.83;;
23449;SDS011;11897;45.438;12.128;2023-10-19T08:06:30;7.67;;;5.37;;
23449;SDS011;11897;45.438;12.128;2023-10-19T08:08:57;6.93;;;5.00;;
23449;SDS011;11897;45.438;12.128;2023-10-19T08:11:25;9.07;;;4.93;;
23449;SDS011;11897;45.438;12.128;2023-10-19T08:13:52;7.60;;;5.03;;
23449;SDS011;11897;45.438;12.128;2023-10-19T08:16:20;7.87;;;5.33;;
23449;SDS011;11897;45.438;12.128;2023-10-19T08:18:48;6.37;;;4.63;;
23449;SDS011;11897;45.438;12.128;2023-10-19T08:21:19;6.50;;;5.07;;
23449;SDS011;11897;45.438;12.128;2023-10-19T08:23:47;6.57;;;5.03;;
23449;SDS011;11897;45.438;12.128;2023-10-19T08:26:14;10.47;;;5.30;;
23449;SDS011;11897;45.438;12.128;2023-10-19T08:28:41;5.60;;;4.27;;
23449;SDS011;11897;45.438;12.128;2023-10-19T08:31:09;6.37;;;4.77;;
23449;SDS011;11897;45.438;12.128;2023-10-19T08:33:36;7.37;;;4.80;;
23449;SDS011;11897;45.438;12.128;2023-10-19T08:36:04;5.63;;;4.50;;
23449;SDS011;11897;45.438;12.128;2023-10-19T08:38:32;5.63;;;4.47;;
23449;SDS011;11897;45.438;12.128;2023-10-19T08:41:00;7.13;;;4.80;;
23449;SDS011;11897;45.438;12.128;2023-10-19T08:43:27;5.73;;;4.60;;
23449;SDS011;11897;45.438;12.128;2023-10-19T08:45:55;8.07;;;5.47;;
23449;SDS011;11897;45.438;12.128;2023-10-19T08:48:22;4.77;;;4.10;;
23449;SDS011;11897;45.438;12.128;2023-10-19T08:50:49;7.10;;;4.43;;
23449;SDS011;11897;45.438;12.128;2023-10-19T08:53:17;5.73;;;4.53;;
23449;SDS011;11897;45.438;12.128;2023-10-19T08:55:46;5.17;;;4.27;;
23449;SDS011;11897;45.438;12.128;2023-10-19T08:58:14;5.47;;;4.13;;
23449;SDS011;11897;45.438;12.128;2023-10-19T09:00:42;5.87;;;3.87;;
23449;SDS011;11897;45.438;12.128;2023-10-19T09:03:11;5.30;;;4.10;;
23449;SDS011;11897;45.438;12.128;2023-10-19T09:05:43;4.93;;;4.10;;
23449;SDS011;11897;45.438;12.128;2023-10-19T09:08:16;4.30;;;3.30;;
23449;SDS011;11897;45.438;12.128;2023-10-19T09:10:43;5.80;;;3.57;;
23449;SDS011;11897;45.438;12.128;2023-10-19T09:13:13;5.73;;;4.20;;
23449;SDS011;11897;45.438;12.128;2023-10-19T09:15:44;5.40;;;4.00;;
23449;SDS011;11897;45.438;12.128;2023-10-19T09:18:14;4.83;;;3.63;;
23449;SDS011;11897;45.438;12.128;2023-10-19T09:20:41;5.00;;;3.63;;
23449;SDS011;11897;45.438;12.128;2023-10-19T09:23:18;5.37;;;3.83;;
23449;SDS011;11897;45.438;12.128;2023-10-19T09:25:47;5.00;;;4.00;;
23449;SDS011;11897;45.438;12.128;2023-10-19T09:28:15;4.40;;;3.73;;
23449;SDS011;11897;45.438;12.128;2023-10-19T09:30:42;4.53;;;3.53;;
23449;SDS011;11897;45.438;12.128;2023-10-19T09:33:09;4.40;;;3.20;;
23449;SDS011;11897;45.438;12.128;2023-10-19T09:35:36;4.43;;;3.40;;
23449;SDS011;11897;45.438;12.128;2023-10-19T09:38:03;3.47;;;3.00;;
23449;SDS011;11897;45.438;12.128;2023-10-19T09:40:31;4.30;;;2.80;;
23449;SDS011;11897;45.438;12.128;2023-10-19T09:42:58;5.27;;;3.37;;
23449;SDS011;11897;45.438;12.128;2023-10-19T09:45:37;4.60;;;3.90;;
23449;SDS011;11897;45.438;12.128;2023-10-19T09:48:08;3.87;;;3.23;;
23449;SDS011;11897;45.438;12.128;2023-10-19T09:50:43;20.83;;;5.20;;
23449;SDS011;11897;45.438;12.128;2023-10-19T09:53:10;9.67;;;3.97;;
23449;SDS011;11897;45.438;12.128;2023-10-19T09:55:38;5.67;;;3.83;;
23449;SDS011;11897;45.438;12.128;2023-10-19T09:58:09;16.13;;;5.47;;
23449;SDS011;11897;45.438;12.128;2023-10-19T10:00:44;6.50;;;3.63;;
23449;SDS011;11897;45.438;12.128;2023-10-19T10:05:57;4.83;;;3.43;;
23449;SDS011;11897;45.438;12.128;2023-10-19T10:08:34;5.43;;;3.57;;
23449;SDS011;11897;45.438;12.128;2023-10-19T10:11:14;4.90;;;3.63;;
23449;SDS011;11897;45.438;12.128;2023-10-19T10:13:42;5.67;;;4.07;;
23449;SDS011;11897;45.438;12.128;2023-10-19T10:16:14;4.87;;;3.40;;
23449;SDS011;11897;45.438;12.128;2023-10-19T10:18:41;5.00;;;3.70;;
23449;SDS011;11897;45.438;12.128;2023-10-19T10:21:10;4.90;;;3.70;;
23449;SDS011;11897;45.438;12.128;2023-10-19T10:23:41;6.07;;;4.00;;
23449;SDS011;11897;45.438;12.128;2023-10-19T10:26:10;5.43;;;3.70;;
23449;SDS011;11897;45.438;12.128;2023-10-19T10:28:38;5.20;;;3.83;;
23449;SDS011;11897;45.438;12.128;2023-10-19T10:31:08;4.13;;;3.40;;
23449;SDS011;11897;45.438;12.128;2023-10-19T10:33:40;4.67;;;3.77;;
23449;SDS011;11897;45.438;12.128;2023-10-19T10:36:07;3.93;;;3.17;;
23449;SDS011;11897;45.438;12.128;2023-10-19T10:38:36;7.83;;;3.83;;
23449;SDS011;11897;45.438;12.128;2023-10-19T10:41:03;5.13;;;3.93;;
23449;SDS011;11897;45.438;12.128;2023-10-19T10:43:30;4.63;;;3.70;;
23449;SDS011;11897;45.438;12.128;2023-10-19T10:46:04;5.70;;;4.10;;
23449;SDS011;11897;45.438;12.128;2023-10-19T10:48:40;4.77;;;3.63;;
23449;SDS011;11897;45.438;12.128;2023-10-19T10:51:15;6.53;;;4.03;;
23449;SDS011;11897;45.438;12.128;2023-10-19T10:53:43;5.37;;;3.77;;
23449;SDS011;11897;45.438;12.128;2023-10-19T10:56:10;5.50;;;3.47;;
23449;SDS011;11897;45.438;12.128;2023-10-19T10:58:37;6.67;;;4.43;;
23449;SDS011;11897;45.438;12.128;2023-10-19T11:01:05;4.57;;;3.40;;
23449;SDS011;11897;45.438;12.128;2023-10-19T11:03:31;5.70;;;3.90;;
23449;SDS011;11897;45.438;12.128;2023-10-19T11:06:02;4.87;;;3.80;;
23449;SDS011;11897;45.438;12.128;2023-10-19T11:08:31;6.43;;;4.37;;
23449;SDS011;11897;45.438;12.128;2023-10-19T11:11:02;4.73;;;3.77;;
23449;SDS011;11897;45.438;12.128;2023-10-19T11:13:29;7.03;;;4.60;;
23449;SDS011;11897;45.438;12.128;2023-10-19T11:15:58;3.80;;;3.37;;
23449;SDS011;11897;45.438;12.128;2023-10-19T11:18:29;5.57;;;4.00;;
23449;SDS011;11897;45.438;12.128;2023-10-19T11:20:57;5.10;;;3.93;;
23449;SDS011;11897;45.438;12.128;2023-10-19T11:23:41;5.67;;;4.40;;
23449;SDS011;11897;45.438;12.128;2023-10-19T11:26:20;5.67;;;4.00;;
23449;SDS011;11897;45.438;12.128;2023-10-19T11:28:56;6.33;;;4.50;;
23449;SDS011;11897;45.438;12.128;2023-10-19T11:31:23;3.83;;;3.40;;
23449;SDS011;11897;45.438;12.128;2023-10-19T11:33:50;4.57;;;3.30;;
23449;SDS011;11897;45.438;12.128;2023-10-19T11:36:18;8.10;;;3.47;;
23449;SDS011;11897;45.438;12.128;2023-10-19T11:38:47;3.40;;;2.97;;
23449;SDS011;11897;45.438;12.128;2023-10-19T11:41:15;33.10;;;5.93;;
23449;SDS011;11897;45.438;12.128;2023-10-19T11:43:42;12.27;;;3.77;;
23449;SDS011;11897;45.438;12.128;2023-10-19T11:46:09;9.53;;;3.87;;
23449;SDS011;11897;45.438;12.128;2023-10-19T11:48:37;5.23;;;3.53;;
23449;SDS011;11897;45.438;12.128;2023-10-19T11:51:05;6.00;;;3.87;;
23449;SDS011;11897;45.438;12.128;2023-10-19T11:53:32;5.93;;;3.47;;
23449;SDS011;11897;45.438;12.128;2023-10-19T11:56:03;16.30;;;5.00;;
23449;SDS011;11897;45.438;12.128;2023-10-19T11:58:31;4.93;;;3.67;;
23449;SDS011;11897;45.438;12.128;2023-10-19T12:01:00;6.43;;;4.13;;
23449;SDS011;11897;45.438;12.128;2023-10-19T12:03:26;9.77;;;4.57;;
23449;SDS011;11897;45.438;12.128;2023-10-19T12:05:53;6.47;;;3.60;;
23449;SDS011;11897;45.438;12.128;2023-10-19T12:08:22;6.83;;;4.40;;
23449;SDS011;11897;45.438;12.128;2023-10-19T12:10:49;5.70;;;3.63;;
23449;SDS011;11897;45.438;12.128;2023-10-19T12:13:17;5.00;;;3.80;;
23449;SDS011;11897;45.438;12.128;2023-10-19T12:15:44;4.27;;;3.67;;
23449;SDS011;11897;45.438;12.128;2023-10-19T12:18:17;5.83;;;4.13;;
23449;SDS011;11897;45.438;12.128;2023-10-19T12:20:44;6.00;;;4.20;;
23449;SDS011;11897;45.438;12.128;2023-10-19T12:23:11;5.60;;;3.77;;
23449;SDS011;11897;45.438;12.128;2023-10-19T12:25:37;6.07;;;4.23;;
23449;SDS011;11897;45.438;12.128;2023-10-19T12:28:05;7.07;;;4.23;;
23449;SDS011;11897;45.438;12.128;2023-10-19T12:30:34;6.60;;;4.60;;
23449;SDS011;11897;45.438;12.128;2023-10-19T12:33:02;6.10;;;4.80;;
23449;SDS011;11897;45.438;12.128;2023-10-19T12:35:33;7.47;;;4.93;;
23449;SDS011;11897;45.438;12.128;2023-10-19T12:38:10;8.27;;;5.07;;
23449;SDS011;11897;45.438;12.128;2023-10-19T12:40:41;9.23;;;4.60;;
23449;SDS011;11897;45.438;12.128;2023-10-19T12:43:09;7.20;;;4.73;;
23449;SDS011;11897;45.438;12.128;2023-10-19T12:45:39;6.23;;;4.83;;
23449;SDS011;11897;45.438;12.128;2023-10-19T12:48:06;7.00;;;5.30;;
23449;SDS011;11897;45.438;12.128;2023-10-19T12:50:33;7.23;;;5.17;;
23449;SDS011;11897;45.438;12.128;2023-10-19T12:53:00;7.63;;;5.47;;
23449;SDS011;11897;45.438;12.128;2023-10-19T12:55:27;8.23;;;5.43;;
23449;SDS011;11897;45.438;12.128;2023-10-19T12:57:53;7.33;;;5.50;;
23449;SDS011;11897;45.438;12.128;2023-10-19T13:00:22;7.53;;;5.27;;
23449;SDS011;11897;45.438;12.128;2023-10-19T13:02:55;8.77;;;5.93;;
23449;SDS011;11897;45.438;12.128;2023-10-19T13:05:26;7.50;;;5.73;;
23449;SDS011;11897;45.438;12.128;2023-10-19T13:07:53;10.20;;;6.00;;
23449;SDS011;11897;45.438;12.128;2023-10-19T13:10:27;9.13;;;6.03;;
23449;SDS011;11897;45.438;12.128;2023-10-19T13:12:59;8.93;;;6.20;;
23449;SDS011;11897;45.438;12.128;2023-10-19T13:15:29;8.27;;;5.73;;
23449;SDS011;11897;45.438;12.128;2023-10-19T13:17:58;20.90;;;6.93;;
23449;SDS011;11897;45.438;12.128;2023-10-19T13:20:26;15.00;;;6.50;;
23449;SDS011;11897;45.438;12.128;2023-10-19T13:22:53;9.90;;;6.90;;
23449;SDS011;11897;45.438;12.128;2023-10-19T13:25:21;9.70;;;6.73;;
23449;SDS011;11897;45.438;12.128;2023-10-19T13:28:05;15.67;;;7.10;;
23449;SDS011;11897;45.438;12.128;2023-10-19T13:30:37;11.37;;;7.17;;
23449;SDS011;11897;45.438;12.128;2023-10-19T13:33:06;10.40;;;7.20;;
23449;SDS011;11897;45.438;12.128;2023-10-19T13:35:35;12.20;;;7.73;;
23449;SDS011;11897;45.438;12.128;2023-10-19T13:38:02;12.10;;;8.30;;
23449;SDS011;11897;45.438;12.128;2023-10-19T13:40:29;14.00;;;8.63;;
23449;SDS011;11897;45.438;12.128;2023-10-19T13:42:56;18.23;;;10.97;;
23449;SDS011;11897;45.438;12.128;2023-10-19T13:45:23;18.57;;;9.43;;
23449;SDS011;11897;45.438;12.128;2023-10-19T13:47:49;14.47;;;8.67;;
23449;SDS011;11897;45.438;12.128;2023-10-19T13:50:22;12.77;;;7.80;;
23449;SDS011;11897;45.438;12.128;2023-10-19T13:52:49;11.97;;;7.93;;
23449;SDS011;11897;45.438;12.128;2023-10-19T13:55:17;12.07;;;7.23;;
23449;SDS011;11897;45.438;12.128;2023-10-19T13:57:44;10.47;;;6.73;;
23449;SDS011;11897;45.438;12.128;2023-10-19T14:00:11;44.83;;;10.53;;
23449;SDS011;11897;45.438;12.128;2023-10-19T14:02:44;9.60;;;6.87;;
23449;SDS011;11897;45.438;12.128;2023-10-19T14:05:11;9.77;;;6.30;;
23449;SDS011;11897;45.438;12.128;2023-10-19T14:07:39;11.20;;;7.13;;
23449;SDS011;11897;45.438;12.128;2023-10-19T14:10:06;12.87;;;7.60;;
23449;SDS011;11897;45.438;12.128;2023-10-19T14:12:33;9.93;;;6.40;;
23449;SDS011;11897;45.438;12.128;2023-10-19T14:15:00;9.50;;;6.80;;
23449;SDS011;11897;45.438;12.128;2023-10-19T14:17:27;11.17;;;7.20;;
23449;SDS011;11897;45.438;12.128;2023-10-19T14:19:56;15.27;;;7.00;;
23449;SDS011;11897;45.438;12.128;2023-10-19T14:22:23;10.43;;;6.47;;
23449;SDS011;11897;45.438;12.128;2023-10-19T14:24:51;10.13;;;6.10;;
23449;SDS011;11897;45.438;12.128;2023-10-19T14:27:18;12.90;;;6.77;;
23449;SDS011;11897;45.438;12.128;2023-10-19T14:29:46;11.17;;;6.40;;
23449;SDS011;11897;45.438;12.128;2023-10-19T14:32:13;8.70;;;6.00;;
23449;SDS011;11897;45.438;12.128;2023-10-19T14:34:40;10.93;;;6.97;;
23449;SDS011;11897;45.438;12.128;2023-10-19T14:37:07;10.30;;;5.73;;
23449;SDS011;11897;45.438;12.128;2023-10-19T14:39:34;11.90;;;5.97;;